EZY435 EGPH-EGGD
Flight info
| Callsign | EZY435 |
|---|---|
| Flight time | 0h 53m |
| Altitude | 33000 |
| Route | GOSAM P600 FENIK L612 NAVSO DCT ADZOP DCT EGTOC DCT NOKIN N862 KARNO DCT ALHUP DCT LUCSA N862 WEVBE |
| Aircraft | A320/M-SDE3FGHIRWY/LB1 |
Departure
| Time | 2026-05-07 19:27 |
|---|---|
| Airport | Edinburgh Airport (EGPH) |
Arrival
| Time | 2026-05-07 20:20 |
|---|---|
| Airport | Bristol Airport (EGGD) |
| Time | Latitude | Longitude | Altitude | Speed | Heading |
|---|---|---|---|---|---|
| 2026-05-07 19:03 | 55.94702 | -3.36602 | 113 ft | 0 kts | 89° |
| 2026-05-07 19:17 | 55.94702 | -3.36627 | 113 ft | 2 kts | 89° |
| 2026-05-07 19:17 | 55.94702 | -3.36657 | 114 ft | 2 kts | 89° |
| 2026-05-07 19:18 | 55.94702 | -3.36688 | 113 ft | 2 kts | 89° |
| 2026-05-07 19:18 | 55.94698 | -3.36717 | 112 ft | 2 kts | 48° |
| 2026-05-07 19:18 | 55.94689 | -3.36730 | 114 ft | 0 kts | 3° |
| 2026-05-07 19:21 | 55.94698 | -3.36729 | 112 ft | 2 kts | 2° |
| 2026-05-07 19:21 | 55.94720 | -3.36731 | 114 ft | 6 kts | 355° |
| 2026-05-07 19:21 | 55.94753 | -3.36747 | 115 ft | 4 kts | 334° |
| 2026-05-07 19:22 | 55.94774 | -3.36768 | 114 ft | 3 kts | 333° |
| 2026-05-07 19:22 | 55.94812 | -3.36777 | 116 ft | 8 kts | 360° |
| 2026-05-07 19:22 | 55.94881 | -3.36784 | 116 ft | 11 kts | 342° |
| 2026-05-07 19:22 | 55.94944 | -3.36820 | 116 ft | 9 kts | 25° |
| 2026-05-07 19:23 | 55.94990 | -3.36708 | 113 ft | 13 kts | 59° |
| 2026-05-07 19:23 | 55.95034 | -3.36574 | 113 ft | 12 kts | 59° |
| 2026-05-07 19:23 | 55.95076 | -3.36449 | 113 ft | 14 kts | 59° |
| 2026-05-07 19:23 | 55.95127 | -3.36303 | 115 ft | 13 kts | 58° |
| 2026-05-07 19:24 | 55.95172 | -3.36167 | 115 ft | 13 kts | 59° |
| 2026-05-07 19:24 | 55.95220 | -3.36025 | 112 ft | 14 kts | 59° |
| 2026-05-07 19:24 | 55.95270 | -3.35876 | 115 ft | 14 kts | 59° |
| 2026-05-07 19:24 | 55.95322 | -3.35722 | 112 ft | 14 kts | 58° |
| 2026-05-07 19:25 | 55.95371 | -3.35580 | 114 ft | 13 kts | 58° |
| 2026-05-07 19:25 | 55.95407 | -3.35473 | 112 ft | 8 kts | 58° |
| 2026-05-07 19:25 | 55.95440 | -3.35404 | 114 ft | 7 kts | 26° |
| 2026-05-07 19:25 | 55.95495 | -3.35435 | 113 ft | 10 kts | 330° |
| 2026-05-07 19:26 | 55.95557 | -3.35499 | 113 ft | 10 kts | 328° |
| 2026-05-07 19:26 | 55.95562 | -3.35591 | 113 ft | 9 kts | 242° |
| 2026-05-07 19:26 | 55.95493 | -3.35799 | 112 ft | 47 kts | 238° |
| 2026-05-07 19:26 | 55.95198 | -3.36662 | 114 ft | 112 kts | 238° |
| 2026-05-07 19:27 | 55.94704 | -3.38090 | 250 ft | 147 kts | 236° |
| 2026-05-07 19:27 | 55.94197 | -3.39644 | 1012 ft | 143 kts | 236° |
| 2026-05-07 19:27 | 55.93694 | -3.41160 | 1699 ft | 144 kts | 235° |
| 2026-05-07 19:27 | 55.93157 | -3.42708 | 2281 ft | 148 kts | 233° |
| 2026-05-07 19:28 | 55.92582 | -3.44314 | 2730 ft | 163 kts | 234° |
| 2026-05-07 19:28 | 55.91942 | -3.46127 | 3024 ft | 185 kts | 235° |
| 2026-05-07 19:28 | 55.91217 | -3.48207 | 3308 ft | 210 kts | 236° |
| 2026-05-07 19:28 | 55.90497 | -3.50650 | 3708 ft | 236 kts | 251° |
| 2026-05-07 19:29 | 55.90177 | -3.53621 | 4467 ft | 247 kts | 258° |
| 2026-05-07 19:29 | 55.89884 | -3.56625 | 5360 ft | 251 kts | 257° |
| 2026-05-07 19:29 | 55.89576 | -3.59705 | 6265 ft | 254 kts | 257° |
| 2026-05-07 19:29 | 55.89261 | -3.62827 | 7148 ft | 257 kts | 257° |
| 2026-05-07 19:30 | 55.88944 | -3.65981 | 8020 ft | 259 kts | 257° |
| 2026-05-07 19:30 | 55.88622 | -3.69162 | 8904 ft | 262 kts | 257° |
| 2026-05-07 19:30 | 55.88294 | -3.72378 | 9777 ft | 264 kts | 257° |
| 2026-05-07 19:30 | 55.87968 | -3.75601 | 10356 ft | 277 kts | 257° |
| 2026-05-07 19:31 | 55.87610 | -3.79126 | 10595 ft | 300 kts | 257° |
| 2026-05-07 19:31 | 55.87229 | -3.82908 | 10865 ft | 320 kts | 258° |
| 2026-05-07 19:31 | 55.86835 | -3.86870 | 11456 ft | 327 kts | 258° |
| 2026-05-07 19:31 | 55.86438 | -3.90910 | 12161 ft | 332 kts | 257° |
| 2026-05-07 19:32 | 55.86036 | -3.94985 | 12894 ft | 336 kts | 257° |
| 2026-05-07 19:32 | 55.85631 | -3.99054 | 13603 ft | 340 kts | 257° |
| 2026-05-07 19:32 | 55.85130 | -4.03188 | 14235 ft | 341 kts | 248° |
| 2026-05-07 19:32 | 55.84006 | -4.06894 | 14864 ft | 341 kts | 230° |
| 2026-05-07 19:33 | 55.82241 | -4.09697 | 15500 ft | 343 kts | 211° |
| 2026-05-07 19:33 | 55.80016 | -4.11251 | 16119 ft | 348 kts | 192° |
| 2026-05-07 19:33 | 55.77605 | -4.11316 | 16722 ft | 357 kts | 173° |
| 2026-05-07 19:33 | 55.75168 | -4.10170 | 17340 ft | 362 kts | 167° |
| 2026-05-07 19:34 | 55.72733 | -4.08892 | 17956 ft | 365 kts | 167° |
| 2026-05-07 19:34 | 55.70314 | -4.07612 | 18474 ft | 368 kts | 167° |
| 2026-05-07 19:34 | 55.67840 | -4.06309 | 18965 ft | 372 kts | 167° |
| 2026-05-07 19:34 | 55.65351 | -4.05005 | 19461 ft | 375 kts | 167° |
| 2026-05-07 19:35 | 55.62833 | -4.03692 | 19966 ft | 377 kts | 167° |
| 2026-05-07 19:35 | 55.60298 | -4.02374 | 20466 ft | 380 kts | 167° |
| 2026-05-07 19:35 | 55.57782 | -4.01069 | 20950 ft | 383 kts | 167° |
| 2026-05-07 19:35 | 55.55199 | -3.99731 | 21425 ft | 386 kts | 167° |
| 2026-05-07 19:36 | 55.52603 | -3.98394 | 21891 ft | 389 kts | 167° |
| 2026-05-07 19:36 | 55.49993 | -3.97053 | 22349 ft | 392 kts | 167° |
| 2026-05-07 19:36 | 55.47388 | -3.95716 | 22808 ft | 394 kts | 167° |
| 2026-05-07 19:36 | 55.44733 | -3.94357 | 23215 ft | 398 kts | 167° |
| 2026-05-07 19:37 | 55.42053 | -3.92984 | 23608 ft | 402 kts | 167° |
| 2026-05-07 19:37 | 55.39359 | -3.91602 | 23977 ft | 404 kts | 167° |
| 2026-05-07 19:37 | 55.36679 | -3.90231 | 24368 ft | 406 kts | 167° |
| 2026-05-07 19:37 | 55.33960 | -3.88839 | 24753 ft | 407 kts | 167° |
| 2026-05-07 19:38 | 55.31233 | -3.87441 | 25138 ft | 409 kts | 167° |
| 2026-05-07 19:38 | 55.28493 | -3.86037 | 25509 ft | 410 kts | 167° |
| 2026-05-07 19:38 | 55.25779 | -3.84654 | 25900 ft | 411 kts | 167° |
| 2026-05-07 19:38 | 55.23016 | -3.83254 | 26276 ft | 412 kts | 167° |
| 2026-05-07 19:39 | 55.20249 | -3.81855 | 26639 ft | 414 kts | 166° |
| 2026-05-07 19:39 | 55.17501 | -3.80464 | 26970 ft | 417 kts | 166° |
| 2026-05-07 19:39 | 55.14704 | -3.79049 | 27320 ft | 419 kts | 166° |
| 2026-05-07 19:39 | 55.12812 | -3.78091 | 27553 ft | 420 kts | 166° |
| 2026-05-07 19:40 | 55.09087 | -3.76212 | 28011 ft | 422 kts | 166° |
| 2026-05-07 19:40 | 55.06290 | -3.74804 | 28336 ft | 423 kts | 166° |
| 2026-05-07 19:40 | 55.03421 | -3.73359 | 28659 ft | 425 kts | 166° |
| 2026-05-07 19:40 | 55.00601 | -3.71944 | 28968 ft | 426 kts | 166° |
| 2026-05-07 19:41 | 54.97738 | -3.70511 | 29272 ft | 427 kts | 166° |
| 2026-05-07 19:41 | 54.94869 | -3.69075 | 29550 ft | 429 kts | 166° |
| 2026-05-07 19:41 | 54.91985 | -3.67627 | 29828 ft | 431 kts | 166° |
| 2026-05-07 19:41 | 54.89137 | -3.66196 | 30214 ft | 430 kts | 166° |
| 2026-05-07 19:42 | 54.86262 | -3.64755 | 30572 ft | 429 kts | 166° |
| 2026-05-07 19:42 | 54.83392 | -3.63327 | 30919 ft | 428 kts | 166° |
| 2026-05-07 19:42 | 54.80540 | -3.61914 | 31265 ft | 427 kts | 166° |
| 2026-05-07 19:42 | 54.77684 | -3.60498 | 31618 ft | 426 kts | 166° |
| 2026-05-07 19:43 | 54.74872 | -3.59104 | 31971 ft | 425 kts | 166° |
| 2026-05-07 19:43 | 54.72031 | -3.57695 | 32320 ft | 424 kts | 166° |
| 2026-05-07 19:43 | 54.69198 | -3.56294 | 32656 ft | 423 kts | 166° |
| 2026-05-07 19:43 | 54.66361 | -3.54893 | 32909 ft | 424 kts | 166° |
| 2026-05-07 19:44 | 54.60669 | -3.52088 | 33003 ft | 424 kts | 166° |
| 2026-05-07 19:44 | 54.55948 | -3.49773 | 32998 ft | 424 kts | 166° |
| 2026-05-07 19:45 | 54.50281 | -3.47000 | 33001 ft | 424 kts | 166° |
| 2026-05-07 19:45 | 54.43660 | -3.43760 | 32994 ft | 426 kts | 166° |
| 2026-05-07 19:46 | 54.38886 | -3.41428 | 33011 ft | 428 kts | 166° |
| 2026-05-07 19:46 | 54.33156 | -3.38643 | 32999 ft | 428 kts | 166° |
| 2026-05-07 19:47 | 54.27460 | -3.35893 | 33005 ft | 428 kts | 166° |
| 2026-05-07 19:47 | 54.21720 | -3.33135 | 32995 ft | 428 kts | 166° |
| 2026-05-07 19:48 | 54.15979 | -3.30379 | 32985 ft | 429 kts | 167° |
| 2026-05-07 19:48 | 54.10226 | -3.27612 | 32988 ft | 431 kts | 166° |
| 2026-05-07 19:49 | 54.04483 | -3.24859 | 32987 ft | 432 kts | 167° |
| 2026-05-07 19:49 | 53.98679 | -3.22113 | 32992 ft | 432 kts | 168° |
| 2026-05-07 19:50 | 53.92857 | -3.19808 | 32980 ft | 431 kts | 170° |
| 2026-05-07 19:50 | 53.86956 | -3.17707 | 32978 ft | 433 kts | 171° |
| 2026-05-07 19:51 | 53.81082 | -3.15556 | 32974 ft | 434 kts | 170° |
| 2026-05-07 19:51 | 53.75179 | -3.13323 | 32987 ft | 434 kts | 170° |
| 2026-05-07 19:52 | 53.69304 | -3.11101 | 32971 ft | 434 kts | 169° |
| 2026-05-07 19:52 | 53.63385 | -3.08868 | 32997 ft | 435 kts | 169° |
| 2026-05-07 19:53 | 53.57491 | -3.06658 | 33001 ft | 436 kts | 170° |
| 2026-05-07 19:53 | 53.51552 | -3.04441 | 33003 ft | 436 kts | 170° |
| 2026-05-07 19:54 | 53.45613 | -3.02243 | 33005 ft | 437 kts | 170° |
| 2026-05-07 19:54 | 53.39670 | -3.00050 | 33012 ft | 437 kts | 170° |
| 2026-05-07 19:55 | 53.33754 | -2.97860 | 33013 ft | 437 kts | 170° |
| 2026-05-07 19:55 | 53.27795 | -2.95661 | 32919 ft | 439 kts | 170° |
| 2026-05-07 19:56 | 53.24843 | -2.94578 | 32515 ft | 438 kts | 170° |
| 2026-05-07 19:56 | 53.21859 | -2.93481 | 32117 ft | 439 kts | 170° |
| 2026-05-07 19:56 | 53.18875 | -2.92386 | 31719 ft | 440 kts | 170° |
| 2026-05-07 19:56 | 53.15873 | -2.91285 | 31330 ft | 441 kts | 170° |
| 2026-05-07 19:57 | 53.12874 | -2.90185 | 30949 ft | 442 kts | 170° |
| 2026-05-07 19:57 | 53.09867 | -2.89096 | 30572 ft | 442 kts | 172° |
| 2026-05-07 19:57 | 53.06816 | -2.88498 | 30200 ft | 440 kts | 180° |
| 2026-05-07 19:57 | 53.03798 | -2.88611 | 29789 ft | 439 kts | 185° |
| 2026-05-07 19:58 | 53.00767 | -2.88891 | 29360 ft | 440 kts | 185° |
| 2026-05-07 19:58 | 52.97708 | -2.89160 | 28933 ft | 438 kts | 185° |
| 2026-05-07 19:58 | 52.94670 | -2.89413 | 28498 ft | 436 kts | 185° |
| 2026-05-07 19:58 | 52.91638 | -2.89656 | 28078 ft | 433 kts | 185° |
| 2026-05-07 19:59 | 52.88671 | -2.90010 | 27679 ft | 429 kts | 189° |
| 2026-05-07 19:59 | 52.85722 | -2.90707 | 27222 ft | 426 kts | 190° |
| 2026-05-07 19:59 | 52.82779 | -2.91403 | 26720 ft | 423 kts | 190° |
| 2026-05-07 19:59 | 52.79873 | -2.92087 | 26229 ft | 420 kts | 190° |
| 2026-05-07 20:00 | 52.77018 | -2.92754 | 25756 ft | 417 kts | 190° |
| 2026-05-07 20:00 | 52.74151 | -2.93423 | 25281 ft | 414 kts | 190° |
| 2026-05-07 20:00 | 52.71328 | -2.94059 | 24812 ft | 411 kts | 187° |
| 2026-05-07 20:00 | 52.68460 | -2.94346 | 24350 ft | 409 kts | 185° |
| 2026-05-07 20:01 | 52.65628 | -2.94578 | 23899 ft | 406 kts | 185° |
| 2026-05-07 20:01 | 52.62808 | -2.94810 | 23425 ft | 404 kts | 185° |
| 2026-05-07 20:01 | 52.60047 | -2.95040 | 22901 ft | 401 kts | 185° |
| 2026-05-07 20:01 | 52.57269 | -2.95270 | 22381 ft | 398 kts | 185° |
| 2026-05-07 20:02 | 52.54516 | -2.95499 | 21871 ft | 395 kts | 185° |
| 2026-05-07 20:02 | 52.51771 | -2.95725 | 21369 ft | 392 kts | 185° |
| 2026-05-07 20:02 | 52.49058 | -2.95950 | 20869 ft | 389 kts | 184° |
| 2026-05-07 20:02 | 52.46383 | -2.96171 | 20391 ft | 386 kts | 184° |
| 2026-05-07 20:03 | 52.43707 | -2.96391 | 19940 ft | 384 kts | 184° |
| 2026-05-07 20:03 | 52.41048 | -2.96611 | 19491 ft | 381 kts | 184° |
| 2026-05-07 20:03 | 52.38399 | -2.96826 | 19054 ft | 379 kts | 184° |
| 2026-05-07 20:03 | 52.35769 | -2.97037 | 18620 ft | 377 kts | 184° |
| 2026-05-07 20:04 | 52.33187 | -2.97245 | 18188 ft | 374 kts | 184° |
| 2026-05-07 20:04 | 52.30592 | -2.97459 | 17698 ft | 372 kts | 184° |
| 2026-05-07 20:04 | 52.28013 | -2.97674 | 17214 ft | 369 kts | 184° |
| 2026-05-07 20:04 | 52.25444 | -2.97884 | 16736 ft | 367 kts | 184° |
| 2026-05-07 20:05 | 52.22931 | -2.98088 | 16266 ft | 365 kts | 184° |
| 2026-05-07 20:05 | 52.20401 | -2.98295 | 15806 ft | 363 kts | 184° |
| 2026-05-07 20:05 | 52.17883 | -2.98500 | 15352 ft | 361 kts | 184° |
| 2026-05-07 20:05 | 52.15380 | -2.98703 | 15013 ft | 359 kts | 184° |
| 2026-05-07 20:06 | 52.12885 | -2.98905 | 14695 ft | 358 kts | 184° |
| 2026-05-07 20:06 | 52.10397 | -2.99105 | 14376 ft | 357 kts | 184° |
| 2026-05-07 20:06 | 52.07945 | -2.99302 | 14065 ft | 355 kts | 184° |
| 2026-05-07 20:06 | 52.05472 | -2.99499 | 13741 ft | 354 kts | 184° |
| 2026-05-07 20:07 | 52.03011 | -2.99695 | 13395 ft | 352 kts | 184° |
| 2026-05-07 20:07 | 52.00602 | -2.99889 | 13042 ft | 347 kts | 184° |
| 2026-05-07 20:07 | 51.98210 | -3.00081 | 12683 ft | 340 kts | 184° |
| 2026-05-07 20:07 | 51.95857 | -3.00051 | 12323 ft | 334 kts | 175° |
| 2026-05-07 20:08 | 51.93616 | -2.99376 | 11985 ft | 329 kts | 165° |
| 2026-05-07 20:08 | 51.91475 | -2.98156 | 11649 ft | 323 kts | 161° |
| 2026-05-07 20:08 | 51.89387 | -2.96894 | 11323 ft | 317 kts | 161° |
| 2026-05-07 20:08 | 51.87324 | -2.95654 | 10995 ft | 313 kts | 161° |
| 2026-05-07 20:09 | 51.85298 | -2.94442 | 10673 ft | 308 kts | 161° |
| 2026-05-07 20:09 | 51.83296 | -2.93247 | 10353 ft | 304 kts | 161° |
| 2026-05-07 20:09 | 51.81342 | -2.92079 | 10039 ft | 300 kts | 161° |
| 2026-05-07 20:10 | 51.77470 | -2.89766 | 9336 ft | 293 kts | 161° |
| 2026-05-07 20:10 | 51.75570 | -2.88637 | 8991 ft | 289 kts | 161° |
| 2026-05-07 20:10 | 51.73725 | -2.87543 | 8638 ft | 276 kts | 161° |
| 2026-05-07 20:10 | 51.71963 | -2.86485 | 8300 ft | 267 kts | 159° |
| 2026-05-07 20:11 | 51.70344 | -2.85095 | 7977 ft | 266 kts | 147° |
| 2026-05-07 20:11 | 51.68844 | -2.83372 | 7669 ft | 263 kts | 146° |
| 2026-05-07 20:11 | 51.67369 | -2.81670 | 7368 ft | 259 kts | 146° |
| 2026-05-07 20:11 | 51.65913 | -2.79990 | 7062 ft | 256 kts | 146° |
| 2026-05-07 20:12 | 51.64474 | -2.78326 | 6761 ft | 252 kts | 146° |
| 2026-05-07 20:12 | 51.63070 | -2.76707 | 6468 ft | 249 kts | 146° |
| 2026-05-07 20:12 | 51.61668 | -2.75095 | 6151 ft | 245 kts | 146° |
| 2026-05-07 20:12 | 51.60296 | -2.73524 | 5813 ft | 243 kts | 146° |
| 2026-05-07 20:13 | 51.58921 | -2.71950 | 5462 ft | 241 kts | 146° |
| 2026-05-07 20:13 | 51.57562 | -2.70396 | 5138 ft | 239 kts | 146° |
| 2026-05-07 20:13 | 51.56230 | -2.68872 | 4807 ft | 236 kts | 145° |
| 2026-05-07 20:13 | 51.54900 | -2.67346 | 4453 ft | 231 kts | 145° |
| 2026-05-07 20:14 | 51.53615 | -2.65876 | 4126 ft | 222 kts | 145° |
| 2026-05-07 20:14 | 51.52378 | -2.64464 | 3798 ft | 215 kts | 145° |
| 2026-05-07 20:14 | 51.51169 | -2.63090 | 3462 ft | 209 kts | 145° |
| 2026-05-07 20:14 | 51.49992 | -2.61750 | 3129 ft | 205 kts | 146° |
| 2026-05-07 20:15 | 51.48876 | -2.60479 | 3011 ft | 190 kts | 146° |
| 2026-05-07 20:15 | 51.47821 | -2.59279 | 3025 ft | 184 kts | 146° |
| 2026-05-07 20:15 | 51.46777 | -2.58095 | 2929 ft | 182 kts | 145° |
| 2026-05-07 20:15 | 51.45751 | -2.56929 | 2776 ft | 180 kts | 145° |
| 2026-05-07 20:16 | 51.44729 | -2.55771 | 2630 ft | 179 kts | 145° |
| 2026-05-07 20:16 | 51.43753 | -2.54664 | 2541 ft | 168 kts | 146° |
| 2026-05-07 20:16 | 51.42822 | -2.53612 | 2503 ft | 161 kts | 147° |
| 2026-05-07 20:16 | 51.41811 | -2.52926 | 2513 ft | 158 kts | 170° |
| 2026-05-07 20:17 | 51.40719 | -2.52988 | 2503 ft | 158 kts | 193° |
| 2026-05-07 20:17 | 51.39743 | -2.53785 | 2503 ft | 156 kts | 218° |
| 2026-05-07 20:17 | 51.39106 | -2.55078 | 2481 ft | 148 kts | 240° |
| 2026-05-07 20:17 | 51.38844 | -2.56652 | 2347 ft | 147 kts | 263° |
| 2026-05-07 20:18 | 51.38784 | -2.58279 | 2177 ft | 146 kts | 263° |
| 2026-05-07 20:18 | 51.38724 | -2.59896 | 1992 ft | 145 kts | 263° |
| 2026-05-07 20:18 | 51.38664 | -2.61502 | 1801 ft | 145 kts | 263° |
| 2026-05-07 20:18 | 51.38603 | -2.63111 | 1603 ft | 144 kts | 263° |
| 2026-05-07 20:19 | 51.38544 | -2.64689 | 1395 ft | 143 kts | 264° |
| 2026-05-07 20:19 | 51.38483 | -2.66289 | 1187 ft | 144 kts | 264° |
| 2026-05-07 20:19 | 51.38421 | -2.67890 | 988 ft | 144 kts | 266° |
| 2026-05-07 20:19 | 51.38357 | -2.69485 | 791 ft | 143 kts | 266° |
| 2026-05-07 20:20 | 51.38296 | -2.71059 | 605 ft | 141 kts | 268° |
| 2026-05-07 20:20 | 51.38256 | -2.72278 | 628 ft | 60 kts | 266° |
| 2026-05-07 20:20 | 51.38236 | -2.72803 | 634 ft | 39 kts | 265° |
| 2026-05-07 20:20 | 51.38223 | -2.73094 | 632 ft | 19 kts | 266° |
| 2026-05-07 20:21 | 51.38223 | -2.73274 | 629 ft | 17 kts | 290° |
| 2026-05-07 20:21 | 51.38335 | -2.73332 | 617 ft | 21 kts | 23° |
| 2026-05-07 20:21 | 51.38387 | -2.73130 | 607 ft | 17 kts | 85° |
| 2026-05-07 20:21 | 51.38397 | -2.72913 | 616 ft | 20 kts | 86° |
| 2026-05-07 20:22 | 51.38406 | -2.72689 | 616 ft | 20 kts | 86° |
| 2026-05-07 20:22 | 51.38415 | -2.72467 | 612 ft | 20 kts | 86° |
| 2026-05-07 20:22 | 51.38424 | -2.72228 | 608 ft | 24 kts | 86° |
| 2026-05-07 20:22 | 51.38432 | -2.71978 | 606 ft | 20 kts | 90° |
| 2026-05-07 20:23 | 51.38435 | -2.71748 | 606 ft | 19 kts | 87° |
| 2026-05-07 20:23 | 51.38448 | -2.71609 | 617 ft | 6 kts | 36° |
| 2026-05-07 20:23 | 51.38486 | -2.71605 | 623 ft | 4 kts | 0° |
| 2026-05-07 20:23 | 51.38506 | -2.71607 | 617 ft | 11 kts | 356° |
| 2026-05-07 20:24 | 51.38540 | -2.71609 | 614 ft | 0 kts | 358° |